sensor_id;sensor_type;location;lat;lon;timestamp;temperature;humidity
71254;HTU21D;59019;47.638;18.966;2022-10-16T00:02:21;13.01;93.43
71254;HTU21D;59019;47.638;18.966;2022-10-16T00:04:46;12.81;93.88
71254;HTU21D;59019;47.638;18.966;2022-10-16T00:07:12;12.80;94.15
71254;HTU21D;59019;47.638;18.966;2022-10-16T00:09:37;12.79;93.98
71254;HTU21D;59019;47.638;18.966;2022-10-16T00:12:03;12.73;94.17
71254;HTU21D;59019;47.638;18.966;2022-10-16T00:14:29;12.73;94.30
71254;HTU21D;59019;47.638;18.966;2022-10-16T00:16:55;12.76;94.34
71254;HTU21D;59019;47.638;18.966;2022-10-16T00:19:20;12.73;94.25
71254;HTU21D;59019;47.638;18.966;2022-10-16T00:21:46;12.73;94.23
71254;HTU21D;59019;47.638;18.966;2022-10-16T00:24:11;12.60;94.78
71254;HTU21D;59019;47.638;18.966;2022-10-16T00:26:38;12.59;95.20
71254;HTU21D;59019;47.638;18.966;2022-10-16T00:29:04;12.59;95.19
71254;HTU21D;59019;47.638;18.966;2022-10-16T00:31:30;12.60;95.01
71254;HTU21D;59019;47.638;18.966;2022-10-16T00:33:56;12.55;95.41
71254;HTU21D;59019;47.638;18.966;2022-10-16T00:36:24;12.55;95.41
71254;HTU21D;59019;47.638;18.966;2022-10-16T00:38:52;12.48;95.37
71254;HTU21D;59019;47.638;18.966;2022-10-16T00:41:22;12.41;95.56
71254;HTU21D;59019;47.638;18.966;2022-10-16T00:48:45;12.23;95.44
71254;HTU21D;59019;47.638;18.966;2022-10-16T00:51:12;12.16;95.31
71254;HTU21D;59019;47.638;18.966;2022-10-16T00:53:39;12.08;95.62
71254;HTU21D;59019;47.638;18.966;2022-10-16T00:56:04;12.06;95.50
71254;HTU21D;59019;47.638;18.966;2022-10-16T00:58:30;12.03;97.82
71254;HTU21D;59019;47.638;18.966;2022-10-16T01:00:55;12.03;98.16
71254;HTU21D;59019;47.638;18.966;2022-10-16T01:14:07;11.82;95.92
71254;HTU21D;59019;47.638;18.966;2022-10-16T01:19:15;11.72;95.35
71254;HTU21D;59019;47.638;18.966;2022-10-16T01:21:44;11.64;95.59
71254;HTU21D;59019;47.638;18.966;2022-10-16T01:24:21;11.61;95.43
71254;HTU21D;59019;47.638;18.966;2022-10-16T01:27:13;11.44;95.43
71254;HTU21D;59019;47.638;18.966;2022-10-16T01:32:52;11.30;96.11
71254;HTU21D;59019;47.638;18.966;2022-10-16T01:35:30;11.26;96.05
71254;HTU21D;59019;47.638;18.966;2022-10-16T01:38:01;11.19;95.88
71254;HTU21D;59019;47.638;18.966;2022-10-16T01:40:30;11.10;95.89
71254;HTU21D;59019;47.638;18.966;2022-10-16T01:43:04;11.01;96.08
71254;HTU21D;59019;47.638;18.966;2022-10-16T01:45:31;10.95;96.26
71254;HTU21D;59019;47.638;18.966;2022-10-16T01:48:00;10.87;96.34
71254;HTU21D;59019;47.638;18.966;2022-10-16T01:50:26;10.81;96.44
71254;HTU21D;59019;47.638;18.966;2022-10-16T01:52:54;10.71;96.38
71254;HTU21D;59019;47.638;18.966;2022-10-16T01:55:32;10.63;96.81
71254;HTU21D;59019;47.638;18.966;2022-10-16T01:57:59;10.53;96.88
71254;HTU21D;59019;47.638;18.966;2022-10-16T02:00:27;10.50;97.22
71254;HTU21D;59019;47.638;18.966;2022-10-16T02:02:54;10.49;97.21
71254;HTU21D;59019;47.638;18.966;2022-10-16T02:07:49;10.35;97.59
71254;HTU21D;59019;47.638;18.966;2022-10-16T02:10:15;10.28;98.08
71254;HTU21D;59019;47.638;18.966;2022-10-16T02:12:45;10.23;97.69
71254;HTU21D;59019;47.638;18.966;2022-10-16T02:15:12;10.20;97.66
71254;HTU21D;59019;47.638;18.966;2022-10-16T02:17:38;10.18;97.65
71254;HTU21D;59019;47.638;18.966;2022-10-16T02:20:04;10.12;97.76
71254;HTU21D;59019;47.638;18.966;2022-10-16T02:22:35;10.08;97.67
71254;HTU21D;59019;47.638;18.966;2022-10-16T02:25:17;10.07;97.59
71254;HTU21D;59019;47.638;18.966;2022-10-16T02:32:48;9.92;98.31
71254;HTU21D;59019;47.638;18.966;2022-10-16T02:35:18;9.91;98.34
71254;HTU21D;59019;47.638;18.966;2022-10-16T02:37:46;9.91;98.22
71254;HTU21D;59019;47.638;18.966;2022-10-16T02:40:13;9.81;97.92
71254;HTU21D;59019;47.638;18.966;2022-10-16T02:42:40;9.82;97.92
71254;HTU21D;59019;47.638;18.966;2022-10-16T02:45:07;9.74;97.65
71254;HTU21D;59019;47.638;18.966;2022-10-16T02:47:33;9.67;98.19
71254;HTU21D;59019;47.638;18.966;2022-10-16T02:49:58;9.65;98.79
71254;HTU21D;59019;47.638;18.966;2022-10-16T02:52:24;9.62;99.02
71254;HTU21D;59019;47.638;18.966;2022-10-16T02:54:50;9.63;98.98
71254;HTU21D;59019;47.638;18.966;2022-10-16T02:57:15;9.60;99.09
71254;HTU21D;59019;47.638;18.966;2022-10-16T02:59:42;9.59;99.06
71254;HTU21D;59019;47.638;18.966;2022-10-16T03:02:08;9.52;98.48
71254;HTU21D;59019;47.638;18.966;2022-10-16T03:04:33;9.45;99.00
71254;HTU21D;59019;47.638;18.966;2022-10-16T03:06:59;9.40;99.30
71254;HTU21D;59019;47.638;18.966;2022-10-16T03:09:24;9.41;99.51
71254;HTU21D;59019;47.638;18.966;2022-10-16T03:11:50;9.39;99.09
71254;HTU21D;59019;47.638;18.966;2022-10-16T03:14:16;9.36;98.87
71254;HTU21D;59019;47.638;18.966;2022-10-16T03:16:41;9.32;98.80
71254;HTU21D;59019;47.638;18.966;2022-10-16T03:19:08;9.26;98.16
71254;HTU21D;59019;47.638;18.966;2022-10-16T03:21:34;9.19;98.19
71254;HTU21D;59019;47.638;18.966;2022-10-16T03:23:59;9.18;98.06
71254;HTU21D;59019;47.638;18.966;2022-10-16T03:26:25;9.11;97.91
71254;HTU21D;59019;47.638;18.966;2022-10-16T03:28:50;9.11;98.30
71254;HTU21D;59019;47.638;18.966;2022-10-16T03:31:16;9.06;97.98
71254;HTU21D;59019;47.638;18.966;2022-10-16T03:33:41;9.02;97.53
71254;HTU21D;59019;47.638;18.966;2022-10-16T03:36:07;8.86;97.57
71254;HTU21D;59019;47.638;18.966;2022-10-16T03:38:33;8.81;98.76
71254;HTU21D;59019;47.638;18.966;2022-10-16T03:40:58;8.80;98.85
71254;HTU21D;59019;47.638;18.966;2022-10-16T03:43:24;8.73;98.63
71254;HTU21D;59019;47.638;18.966;2022-10-16T03:45:51;8.72;99.03
71254;HTU21D;59019;47.638;18.966;2022-10-16T03:48:17;8.73;99.23
71254;HTU21D;59019;47.638;18.966;2022-10-16T03:50:43;8.68;99.57
71254;HTU21D;59019;47.638;18.966;2022-10-16T03:53:09;8.74;99.60
71254;HTU21D;59019;47.638;18.966;2022-10-16T03:55:35;8.71;99.63
71254;HTU21D;59019;47.638;18.966;2022-10-16T03:58:01;8.70;99.64
71254;HTU21D;59019;47.638;18.966;2022-10-16T04:00:26;8.68;99.61
71254;HTU21D;59019;47.638;18.966;2022-10-16T04:02:52;8.68;99.26
71254;HTU21D;59019;47.638;18.966;2022-10-16T04:05:17;8.63;99.00
71254;HTU21D;59019;47.638;18.966;2022-10-16T04:07:43;8.62;99.10
71254;HTU21D;59019;47.638;18.966;2022-10-16T04:10:09;8.58;99.03
71254;HTU21D;59019;47.638;18.966;2022-10-16T04:12:34;8.57;99.03
71254;HTU21D;59019;47.638;18.966;2022-10-16T04:15:00;8.47;99.07
71254;HTU21D;59019;47.638;18.966;2022-10-16T04:17:25;8.43;99.87
71254;HTU21D;59019;47.638;18.966;2022-10-16T04:19:51;8.45;100.12
71254;HTU21D;59019;47.638;18.966;2022-10-16T04:22:16;8.45;99.92
71254;HTU21D;59019;47.638;18.966;2022-10-16T04:24:42;8.41;99.63
71254;HTU21D;59019;47.638;18.966;2022-10-16T04:27:07;8.39;99.61
71254;HTU21D;59019;47.638;18.966;2022-10-16T04:29:33;8.38;99.69
71254;HTU21D;59019;47.638;18.966;2022-10-16T04:31:58;8.37;99.74
71254;HTU21D;59019;47.638;18.966;2022-10-16T04:34:24;8.39;100.16
71254;HTU21D;59019;47.638;18.966;2022-10-16T04:36:49;8.42;100.61
71254;HTU21D;59019;47.638;18.966;2022-10-16T04:39:15;8.44;101.19
71254;HTU21D;59019;47.638;18.966;2022-10-16T04:41:41;8.45;101.42
71254;HTU21D;59019;47.638;18.966;2022-10-16T04:44:07;8.43;101.05
71254;HTU21D;59019;47.638;18.966;2022-10-16T04:46:32;8.37;100.66
71254;HTU21D;59019;47.638;18.966;2022-10-16T04:48:58;8.33;100.69
71254;HTU21D;59019;47.638;18.966;2022-10-16T04:51:24;8.33;100.49
71254;HTU21D;59019;47.638;18.966;2022-10-16T04:53:50;8.28;100.25
71254;HTU21D;59019;47.638;18.966;2022-10-16T04:56:16;8.24;100.00
71254;HTU21D;59019;47.638;18.966;2022-10-16T04:58:42;8.16;99.95
71254;HTU21D;59019;47.638;18.966;2022-10-16T05:01:08;8.15;100.35
71254;HTU21D;59019;47.638;18.966;2022-10-16T05:03:34;8.15;100.39
71254;HTU21D;59019;47.638;18.966;2022-10-16T05:05:59;8.15;100.12
71254;HTU21D;59019;47.638;18.966;2022-10-16T05:08:25;8.17;100.22
71254;HTU21D;59019;47.638;18.966;2022-10-16T05:10:50;8.13;100.00
71254;HTU21D;59019;47.638;18.966;2022-10-16T05:13:16;8.13;99.84
71254;HTU21D;59019;47.638;18.966;2022-10-16T05:15:41;8.11;99.45
71254;HTU21D;59019;47.638;18.966;2022-10-16T05:18:10;8.06;99.08
71254;HTU21D;59019;47.638;18.966;2022-10-16T05:20:36;8.06;98.97
71254;HTU21D;59019;47.638;18.966;2022-10-16T05:23:01;8.04;98.76
71254;HTU21D;59019;47.638;18.966;2022-10-16T05:25:27;8.04;98.77
71254;HTU21D;59019;47.638;18.966;2022-10-16T05:27:52;8.03;98.91
71254;HTU21D;59019;47.638;18.966;2022-10-16T05:30:18;8.08;99.45
71254;HTU21D;59019;47.638;18.966;2022-10-16T05:32:48;8.08;99.40
71254;HTU21D;59019;47.638;18.966;2022-10-16T05:35:14;8.04;99.50
71254;HTU21D;59019;47.638;18.966;2022-10-16T05:37:40;8.07;99.95
71254;HTU21D;59019;47.638;18.966;2022-10-16T05:40:06;8.11;99.93
71254;HTU21D;59019;47.638;18.966;2022-10-16T05:42:33;8.07;99.92
71254;HTU21D;59019;47.638;18.966;2022-10-16T05:44:59;8.12;99.88
71254;HTU21D;59019;47.638;18.966;2022-10-16T05:47:25;8.14;99.63
71254;HTU21D;59019;47.638;18.966;2022-10-16T05:49:50;8.17;99.67
71254;HTU21D;59019;47.638;18.966;2022-10-16T05:52:16;8.20;99.76
71254;HTU21D;59019;47.638;18.966;2022-10-16T05:54:41;8.22;99.41
71254;HTU21D;59019;47.638;18.966;2022-10-16T05:57:08;8.24;99.52
71254;HTU21D;59019;47.638;18.966;2022-10-16T05:59:33;8.28;99.52
71254;HTU21D;59019;47.638;18.966;2022-10-16T06:01:59;8.32;99.55
71254;HTU21D;59019;47.638;18.966;2022-10-16T06:04:25;8.35;99.19
71254;HTU21D;59019;47.638;18.966;2022-10-16T06:06:50;8.37;98.94
71254;HTU21D;59019;47.638;18.966;2022-10-16T06:09:16;8.42;99.14
71254;HTU21D;59019;47.638;18.966;2022-10-16T06:11:41;8.45;99.16
71254;HTU21D;59019;47.638;18.966;2022-10-16T06:14:08;8.51;99.42
71254;HTU21D;59019;47.638;18.966;2022-10-16T06:16:35;8.53;99.34
71254;HTU21D;59019;47.638;18.966;2022-10-16T06:19:01;8.57;99.47
71254;HTU21D;59019;47.638;18.966;2022-10-16T06:21:29;8.66;99.71
71254;HTU21D;59019;47.638;18.966;2022-10-16T06:23:56;8.76;99.84
71254;HTU21D;59019;47.638;18.966;2022-10-16T06:26:25;8.81;99.75
71254;HTU21D;59019;47.638;18.966;2022-10-16T06:28:51;8.88;99.80
71254;HTU21D;59019;47.638;18.966;2022-10-16T06:31:17;8.91;99.95
71254;HTU21D;59019;47.638;18.966;2022-10-16T06:33:43;9.04;100.21
71254;HTU21D;59019;47.638;18.966;2022-10-16T06:36:14;9.05;100.38
71254;HTU21D;59019;47.638;18.966;2022-10-16T06:38:40;9.18;100.49
71254;HTU21D;59019;47.638;18.966;2022-10-16T06:41:07;9.26;100.51
71254;HTU21D;59019;47.638;18.966;2022-10-16T06:43:33;9.34;100.80
71254;HTU21D;59019;47.638;18.966;2022-10-16T06:46:02;9.48;100.96
71254;HTU21D;59019;47.638;18.966;2022-10-16T06:48:28;9.59;100.86
71254;HTU21D;59019;47.638;18.966;2022-10-16T06:51:11;9.68;100.60
71254;HTU21D;59019;47.638;18.966;2022-10-16T06:53:40;9.86;100.23
71254;HTU21D;59019;47.638;18.966;2022-10-16T06:56:19;9.99;99.75
71254;HTU21D;59019;47.638;18.966;2022-10-16T06:58:46;10.11;100.13
71254;HTU21D;59019;47.638;18.966;2022-10-16T07:01:14;10.22;100.31
71254;HTU21D;59019;47.638;18.966;2022-10-16T07:03:41;10.37;100.01
71254;HTU21D;59019;47.638;18.966;2022-10-16T07:06:10;10.53;99.69
71254;HTU21D;59019;47.638;18.966;2022-10-16T07:08:37;10.63;98.82
71254;HTU21D;59019;47.638;18.966;2022-10-16T07:11:09;10.78;98.42
71254;HTU21D;59019;47.638;18.966;2022-10-16T07:13:37;10.88;98.21
71254;HTU21D;59019;47.638;18.966;2022-10-16T07:16:07;11.04;98.24
71254;HTU21D;59019;47.638;18.966;2022-10-16T07:18:34;11.23;98.11
71254;HTU21D;59019;47.638;18.966;2022-10-16T07:21:09;11.43;97.30
71254;HTU21D;59019;47.638;18.966;2022-10-16T07:23:34;11.63;96.75
71254;HTU21D;59019;47.638;18.966;2022-10-16T07:26:03;11.86;95.46
71254;HTU21D;59019;47.638;18.966;2022-10-16T07:28:29;12.08;94.13
71254;HTU21D;59019;47.638;18.966;2022-10-16T07:30:55;12.35;93.21
71254;HTU21D;59019;47.638;18.966;2022-10-16T07:33:24;12.62;92.06
71254;HTU21D;59019;47.638;18.966;2022-10-16T07:35:52;13.04;91.43
71254;HTU21D;59019;47.638;18.966;2022-10-16T07:38:18;13.51;90.30
71254;HTU21D;59019;47.638;18.966;2022-10-16T07:40:44;13.91;88.13
71254;HTU21D;59019;47.638;18.966;2022-10-16T07:43:10;14.34;86.32
71254;HTU21D;59019;47.638;18.966;2022-10-16T07:45:35;14.73;85.42
71254;HTU21D;59019;47.638;18.966;2022-10-16T07:48:01;15.00;83.27
71254;HTU21D;59019;47.638;18.966;2022-10-16T07:50:26;15.09;81.53
71254;HTU21D;59019;47.638;18.966;2022-10-16T07:52:52;15.26;80.37
71254;HTU21D;59019;47.638;18.966;2022-10-16T07:55:17;15.46;80.08
71254;HTU21D;59019;47.638;18.966;2022-10-16T07:57:43;15.68;79.78
71254;HTU21D;59019;47.638;18.966;2022-10-16T08:00:09;15.91;78.42
71254;HTU21D;59019;47.638;18.966;2022-10-16T08:02:39;15.73;78.32
71254;HTU21D;59019;47.638;18.966;2022-10-16T08:05:05;15.96;78.17
71254;HTU21D;59019;47.638;18.966;2022-10-16T08:07:31;16.00;77.34
71254;HTU21D;59019;47.638;18.966;2022-10-16T08:09:57;16.28;77.17
71254;HTU21D;59019;47.638;18.966;2022-10-16T08:12:25;16.56;76.66
71254;HTU21D;59019;47.638;18.966;2022-10-16T08:14:51;16.71;75.50
71254;HTU21D;59019;47.638;18.966;2022-10-16T08:17:16;16.77;75.51
71254;HTU21D;59019;47.638;18.966;2022-10-16T08:19:46;16.90;74.67
71254;HTU21D;59019;47.638;18.966;2022-10-16T08:22:16;16.75;74.01
71254;HTU21D;59019;47.638;18.966;2022-10-16T08:24:41;16.84;73.80
71254;HTU21D;59019;47.638;18.966;2022-10-16T08:27:07;17.07;73.73
71254;HTU21D;59019;47.638;18.966;2022-10-16T08:29:34;17.06;73.28
71254;HTU21D;59019;47.638;18.966;2022-10-16T08:32:00;17.39;73.61
71254;HTU21D;59019;47.638;18.966;2022-10-16T08:34:25;17.73;72.72
71254;HTU21D;59019;47.638;18.966;2022-10-16T08:36:53;17.36;71.85
71254;HTU21D;59019;47.638;18.966;2022-10-16T08:39:19;17.73;71.84
71254;HTU21D;59019;47.638;18.966;2022-10-16T08:48:08;18.38;69.89
71254;HTU21D;59019;47.638;18.966;2022-10-16T08:50:39;18.66;69.37
71254;HTU21D;59019;47.638;18.966;2022-10-16T08:53:05;18.77;68.78
71254;HTU21D;59019;47.638;18.966;2022-10-16T08:55:41;18.81;66.41
71254;HTU21D;59019;47.638;18.966;2022-10-16T09:00:46;19.01;66.63
71254;HTU21D;59019;47.638;18.966;2022-10-16T09:22:41;20.79;61.96
71254;HTU21D;59019;47.638;18.966;2022-10-16T09:25:15;20.87;60.33
71254;HTU21D;59019;47.638;18.966;2022-10-16T09:27:45;20.77;60.15
71254;HTU21D;59019;47.638;18.966;2022-10-16T09:30:19;20.66;60.96
71254;HTU21D;59019;47.638;18.966;2022-10-16T09:32:48;20.61;61.05
71254;HTU21D;59019;47.638;18.966;2022-10-16T09:35:20;20.81;60.48
71254;HTU21D;59019;47.638;18.966;2022-10-16T09:37:49;21.06;60.83
71254;HTU21D;59019;47.638;18.966;2022-10-16T09:40:36;20.70;61.28
71254;HTU21D;59019;47.638;18.966;2022-10-16T09:46:00;21.85;59.57
71254;HTU21D;59019;47.638;18.966;2022-10-16T09:48:49;21.96;57.16
71254;HTU21D;59019;47.638;18.966;2022-10-16T09:51:26;22.19;57.94
71254;HTU21D;59019;47.638;18.966;2022-10-16T09:54:00;22.40;57.03
71254;HTU21D;59019;47.638;18.966;2022-10-16T09:56:31;21.81;58.41
71254;HTU21D;59019;47.638;18.966;2022-10-16T09:59:00;21.61;57.80
71254;HTU21D;59019;47.638;18.966;2022-10-16T10:01:36;21.76;57.94
71254;HTU21D;59019;47.638;18.966;2022-10-16T10:04:03;20.95;58.65
71254;HTU21D;59019;47.638;18.966;2022-10-16T10:06:35;21.14;59.64
71254;HTU21D;59019;47.638;18.966;2022-10-16T10:09:24;21.72;60.06
71254;HTU21D;59019;47.638;18.966;2022-10-16T10:12:04;21.87;58.34
71254;HTU21D;59019;47.638;18.966;2022-10-16T10:14:37;21.68;58.84
71254;HTU21D;59019;47.638;18.966;2022-10-16T10:22:44;21.70;60.50
71254;HTU21D;59019;47.638;18.966;2022-10-16T10:38:20;22.76;56.13
71254;HTU21D;59019;47.638;18.966;2022-10-16T10:40:57;23.10;56.23
71254;HTU21D;59019;47.638;18.966;2022-10-16T10:46:00;23.41;54.13
71254;HTU21D;59019;47.638;18.966;2022-10-16T10:48:34;22.75;56.36
71254;HTU21D;59019;47.638;18.966;2022-10-16T10:51:15;23.00;55.66
71254;HTU21D;59019;47.638;18.966;2022-10-16T10:56:41;23.45;54.92
71254;HTU21D;59019;47.638;18.966;2022-10-16T10:59:11;23.75;54.03
71254;HTU21D;59019;47.638;18.966;2022-10-16T11:07:21;23.27;53.49
71254;HTU21D;59019;47.638;18.966;2022-10-16T11:09:51;23.86;53.83
71254;HTU21D;59019;47.638;18.966;2022-10-16T11:12:33;24.13;52.88
71254;HTU21D;59019;47.638;18.966;2022-10-16T11:15:14;24.38;52.10
71254;HTU21D;59019;47.638;18.966;2022-10-16T11:18:05;24.57;51.66
71254;HTU21D;59019;47.638;18.966;2022-10-16T11:20:50;24.71;51.81
71254;HTU21D;59019;47.638;18.966;2022-10-16T11:23:26;24.47;50.88
71254;HTU21D;59019;47.638;18.966;2022-10-16T11:25:57;24.04;51.80
71254;HTU21D;59019;47.638;18.966;2022-10-16T11:28:33;22.90;52.65
71254;HTU21D;59019;47.638;18.966;2022-10-16T11:31:02;22.71;54.83
71254;HTU21D;59019;47.638;18.966;2022-10-16T11:33:51;22.68;54.73
71254;HTU21D;59019;47.638;18.966;2022-10-16T11:36:38;22.99;54.41
71254;HTU21D;59019;47.638;18.966;2022-10-16T11:41:51;22.91;56.84
71254;HTU21D;59019;47.638;18.966;2022-10-16T11:47:34;23.44;53.88
71254;HTU21D;59019;47.638;18.966;2022-10-16T11:55:24;23.34;53.94
71254;HTU21D;59019;47.638;18.966;2022-10-16T11:58:03;23.44;54.43
71254;HTU21D;59019;47.638;18.966;2022-10-16T12:06:05;24.12;53.10
71254;HTU21D;59019;47.638;18.966;2022-10-16T12:08:34;24.12;52.63
71254;HTU21D;59019;47.638;18.966;2022-10-16T12:11:52;23.92;52.76
71254;HTU21D;59019;47.638;18.966;2022-10-16T12:14:16;24.08;52.05
71254;HTU21D;59019;47.638;18.966;2022-10-16T12:16:57;24.25;52.61
71254;HTU21D;59019;47.638;18.966;2022-10-16T12:19:26;24.25;50.51
71254;HTU21D;59019;47.638;18.966;2022-10-16T12:21:55;24.44;51.43
71254;HTU21D;59019;47.638;18.966;2022-10-16T12:26:52;24.46;53.49
71254;HTU21D;59019;47.638;18.966;2022-10-16T12:31:48;24.76;51.54
71254;HTU21D;59019;47.638;18.966;2022-10-16T12:34:26;24.60;50.42
71254;HTU21D;59019;47.638;18.966;2022-10-16T12:36:53;24.62;51.07
71254;HTU21D;59019;47.638;18.966;2022-10-16T12:39:24;24.46;50.95
71254;HTU21D;59019;47.638;18.966;2022-10-16T12:42:05;24.49;52.26
71254;HTU21D;59019;47.638;18.966;2022-10-16T12:44:35;24.60;50.48
71254;HTU21D;59019;47.638;18.966;2022-10-16T12:47:02;24.61;51.02
71254;HTU21D;59019;47.638;18.966;2022-10-16T12:49:36;24.69;50.74
71254;HTU21D;59019;47.638;18.966;2022-10-16T12:52:39;24.39;51.20
71254;HTU21D;59019;47.638;18.966;2022-10-16T12:55:11;24.49;51.07
71254;HTU21D;59019;47.638;18.966;2022-10-16T13:21:38;23.16;52.63
71254;HTU21D;59019;47.638;18.966;2022-10-16T13:27:01;23.37;54.56
71254;HTU21D;59019;47.638;18.966;2022-10-16T13:29:30;23.32;54.97
71254;HTU21D;59019;47.638;18.966;2022-10-16T13:31:58;23.34;54.33
71254;HTU21D;59019;47.638;18.966;2022-10-16T13:34:24;23.07;54.53
71254;HTU21D;59019;47.638;18.966;2022-10-16T13:36:52;22.96;54.59
71254;HTU21D;59019;47.638;18.966;2022-10-16T13:39:28;23.05;54.20
71254;HTU21D;59019;47.638;18.966;2022-10-16T13:42:05;23.06;55.16
71254;HTU21D;59019;47.638;18.966;2022-10-16T13:44:48;23.06;55.20
71254;HTU21D;59019;47.638;18.966;2022-10-16T13:52:27;22.63;56.00
71254;HTU21D;59019;47.638;18.966;2022-10-16T13:54:53;22.47;56.68
71254;HTU21D;59019;47.638;18.966;2022-10-16T13:57:22;22.32;55.92
71254;HTU21D;59019;47.638;18.966;2022-10-16T13:59:48;22.13;56.44
71254;HTU21D;59019;47.638;18.966;2022-10-16T14:02:32;21.90;57.32
71254;HTU21D;59019;47.638;18.966;2022-10-16T14:05:02;21.58;58.67
71254;HTU21D;59019;47.638;18.966;2022-10-16T14:07:31;21.31;59.44
71254;HTU21D;59019;47.638;18.966;2022-10-16T14:10:02;20.90;61.34
71254;HTU21D;59019;47.638;18.966;2022-10-16T14:12:27;20.55;61.48
71254;HTU21D;59019;47.638;18.966;2022-10-16T14:14:54;20.25;62.43
71254;HTU21D;59019;47.638;18.966;2022-10-16T14:17:32;19.83;64.30
71254;HTU21D;59019;47.638;18.966;2022-10-16T14:20:00;19.61;65.85
71254;HTU21D;59019;47.638;18.966;2022-10-16T14:22:38;19.48;66.88
71254;HTU21D;59019;47.638;18.966;2022-10-16T14:28:18;18.61;70.50
71254;HTU21D;59019;47.638;18.966;2022-10-16T14:31:01;18.35;71.58
71254;HTU21D;59019;47.638;18.966;2022-10-16T14:36:14;17.73;73.78
71254;HTU21D;59019;47.638;18.966;2022-10-16T14:41:28;17.43;74.91
71254;HTU21D;59019;47.638;18.966;2022-10-16T14:43:56;17.36;75.25
71254;HTU21D;59019;47.638;18.966;2022-10-16T14:46:29;17.18;75.43
71254;HTU21D;59019;47.638;18.966;2022-10-16T14:51:41;17.02;76.30
71254;HTU21D;59019;47.638;18.966;2022-10-16T14:54:09;16.87;76.59
71254;HTU21D;59019;47.638;18.966;2022-10-16T14:56:48;16.66;77.08
71254;HTU21D;59019;47.638;18.966;2022-10-16T14:59:19;16.60;78.11
71254;HTU21D;59019;47.638;18.966;2022-10-16T15:01:45;16.54;77.60
71254;HTU21D;59019;47.638;18.966;2022-10-16T15:04:13;16.24;78.21
71254;HTU21D;59019;47.638;18.966;2022-10-16T15:06:39;16.14;78.55
71254;HTU21D;59019;47.638;18.966;2022-10-16T15:09:04;16.07;78.65
71254;HTU21D;59019;47.638;18.966;2022-10-16T15:11:31;16.01;79.01
71254;HTU21D;59019;47.638;18.966;2022-10-16T15:13:58;15.84;79.67
71254;HTU21D;59019;47.638;18.966;2022-10-16T15:16:24;15.76;79.78
71254;HTU21D;59019;47.638;18.966;2022-10-16T15:18:49;15.73;79.79
71254;HTU21D;59019;47.638;18.966;2022-10-16T15:21:25;15.63;80.22
71254;HTU21D;59019;47.638;18.966;2022-10-16T15:23:52;15.59;80.09
71254;HTU21D;59019;47.638;18.966;2022-10-16T15:26:17;15.43;80.46
71254;HTU21D;59019;47.638;18.966;2022-10-16T15:28:43;15.37;80.94
71254;HTU21D;59019;47.638;18.966;2022-10-16T15:31:08;15.33;80.65
71254;HTU21D;59019;47.638;18.966;2022-10-16T15:33:34;15.25;81.07
71254;HTU21D;59019;47.638;18.966;2022-10-16T15:36:01;15.21;81.07
71254;HTU21D;59019;47.638;18.966;2022-10-16T15:38:28;15.06;81.67
71254;HTU21D;59019;47.638;18.966;2022-10-16T15:40:55;15.01;81.73
71254;HTU21D;59019;47.638;18.966;2022-10-16T15:43:20;14.95;82.14
71254;HTU21D;59019;47.638;18.966;2022-10-16T15:48:26;14.78;83.00
71254;HTU21D;59019;47.638;18.966;2022-10-16T15:50:52;14.73;83.23
71254;HTU21D;59019;47.638;18.966;2022-10-16T15:53:17;14.77;83.11
71254;HTU21D;59019;47.638;18.966;2022-10-16T15:55:43;14.66;83.25
71254;HTU21D;59019;47.638;18.966;2022-10-16T15:58:09;14.62;83.37
71254;HTU21D;59019;47.638;18.966;2022-10-16T16:00:34;14.62;83.02
71254;HTU21D;59019;47.638;18.966;2022-10-16T16:03:00;14.54;83.31
71254;HTU21D;59019;47.638;18.966;2022-10-16T16:05:25;14.48;83.45
71254;HTU21D;59019;47.638;18.966;2022-10-16T16:07:52;14.39;83.60
71254;HTU21D;59019;47.638;18.966;2022-10-16T16:10:18;14.33;84.00
71254;HTU21D;59019;47.638;18.966;2022-10-16T16:12:47;14.17;84.52
71254;HTU21D;59019;47.638;18.966;2022-10-16T16:15:16;13.97;85.67
71254;HTU21D;59019;47.638;18.966;2022-10-16T16:17:42;13.68;86.83
71254;HTU21D;59019;47.638;18.966;2022-10-16T16:20:10;13.63;86.99
71254;HTU21D;59019;47.638;18.966;2022-10-16T16:22:36;13.56;87.28
71254;HTU21D;59019;47.638;18.966;2022-10-16T16:25:02;13.52;87.12
71254;HTU21D;59019;47.638;18.966;2022-10-16T16:27:28;13.40;87.50
71254;HTU21D;59019;47.638;18.966;2022-10-16T16:29:55;13.34;87.67
71254;HTU21D;59019;47.638;18.966;2022-10-16T16:32:21;13.25;87.75
71254;HTU21D;59019;47.638;18.966;2022-10-16T16:34:46;13.21;87.62
71254;HTU21D;59019;47.638;18.966;2022-10-16T16:37:12;13.10;88.09
71254;HTU21D;59019;47.638;18.966;2022-10-16T16:39:38;12.95;88.65
71254;HTU21D;59019;47.638;18.966;2022-10-16T16:42:04;12.99;88.52
71254;HTU21D;59019;47.638;18.966;2022-10-16T16:44:32;12.96;88.44
71254;HTU21D;59019;47.638;18.966;2022-10-16T16:46:57;12.94;88.74
71254;HTU21D;59019;47.638;18.966;2022-10-16T16:49:23;12.90;88.65
71254;HTU21D;59019;47.638;18.966;2022-10-16T16:51:49;12.82;89.02
71254;HTU21D;59019;47.638;18.966;2022-10-16T16:54:15;12.69;89.62
71254;HTU21D;59019;47.638;18.966;2022-10-16T16:56:41;12.67;89.67
71254;HTU21D;59019;47.638;18.966;2022-10-16T16:59:19;12.59;90.03
71254;HTU21D;59019;47.638;18.966;2022-10-16T17:01:46;12.53;90.21
71254;HTU21D;59019;47.638;18.966;2022-10-16T17:04:11;12.44;90.43
71254;HTU21D;59019;47.638;18.966;2022-10-16T17:06:40;12.37;90.84
71254;HTU21D;59019;47.638;18.966;2022-10-16T17:09:08;12.33;91.15
71254;HTU21D;59019;47.638;18.966;2022-10-16T17:11:35;12.27;91.62
71254;HTU21D;59019;47.638;18.966;2022-10-16T17:14:01;12.32;91.49
71254;HTU21D;59019;47.638;18.966;2022-10-16T17:16:30;12.30;91.73
71254;HTU21D;59019;47.638;18.966;2022-10-16T17:19:09;12.20;92.14
71254;HTU21D;59019;47.638;18.966;2022-10-16T17:21:36;12.13;91.40
71254;HTU21D;59019;47.638;18.966;2022-10-16T17:24:02;11.89;92.93
71254;HTU21D;59019;47.638;18.966;2022-10-16T17:26:28;11.83;93.34
71254;HTU21D;59019;47.638;18.966;2022-10-16T17:28:56;11.87;92.69
71254;HTU21D;59019;47.638;18.966;2022-10-16T17:31:24;11.81;92.02
71254;HTU21D;59019;47.638;18.966;2022-10-16T17:33:50;11.83;91.43
71254;HTU21D;59019;47.638;18.966;2022-10-16T17:36:16;11.68;92.09
71254;HTU21D;59019;47.638;18.966;2022-10-16T17:38:43;11.66;91.78
71254;HTU21D;59019;47.638;18.966;2022-10-16T17:41:18;11.59;92.15
71254;HTU21D;59019;47.638;18.966;2022-10-16T17:43:45;11.38;94.09
71254;HTU21D;59019;47.638;18.966;2022-10-16T17:46:12;11.42;94.17
71254;HTU21D;59019;47.638;18.966;2022-10-16T17:48:41;11.41;94.11
71254;HTU21D;59019;47.638;18.966;2022-10-16T17:51:09;11.34;94.38
71254;HTU21D;59019;47.638;18.966;2022-10-16T17:53:36;11.32;94.49